createdAt,value
2023-02-11T00:05:05.265Z,100792.94
2023-02-11T00:10:09.577Z,100784.22
2023-02-11T00:15:13.342Z,100775.66
2023-02-11T00:20:18.327Z,100769.28
2023-02-11T00:25:22.015Z,100763.59
2023-02-11T00:30:25.729Z,100768.25
2023-02-11T00:35:31.810Z,100753.41
2023-02-11T00:40:35.163Z,100755.16
2023-02-11T00:45:40.228Z,100737.84
2023-02-11T00:50:45.342Z,100742.47
2023-02-11T00:55:48.918Z,100741.84
2023-02-11T01:00:53.780Z,100741.16
2023-02-11T01:05:58.561Z,100737.19
2023-02-11T01:11:05.893Z,100739.88
2023-02-11T01:16:12.203Z,100738.50
2023-02-11T01:21:17.052Z,100728.44
2023-02-11T01:26:20.514Z,100725.19
2023-02-11T01:31:24.940Z,100727.88
2023-02-11T01:36:30.544Z,100731.72
2023-02-11T01:41:37.791Z,100724.31
2023-02-11T01:46:41.175Z,100718.47
2023-02-11T01:51:51.017Z,100714.44
2023-02-11T01:57:11.243Z,100715.47
2023-02-11T02:02:19.252Z,100708.91
2023-02-11T02:07:34.169Z,100716.41
2023-02-11T02:12:37.570Z,100726.91
2023-02-11T02:17:55.610Z,100721.84
2023-02-11T02:23:27.592Z,100722.97
2023-02-11T02:28:46.945Z,100732.25
2023-02-11T02:33:56.765Z,100735.25
2023-02-11T02:39:09.813Z,100723.13
2023-02-11T02:44:13.362Z,100736.06
2023-02-11T02:49:18.825Z,100733.28
2023-02-11T02:54:46.154Z,100725.19
2023-02-11T03:00:04.401Z,100719.72
2023-02-11T03:05:17.648Z,100714.78
2023-02-11T03:10:26.378Z,100713.06
2023-02-11T03:15:34.176Z,100713.47
2023-02-11T03:20:43.121Z,100708.09
2023-02-11T03:25:51.919Z,100704.56
2023-02-11T03:31:01.998Z,100703.41
2023-02-11T03:36:12.180Z,100700.44
2023-02-11T03:41:17.584Z,100702.13
2023-02-11T03:46:24.623Z,100694.06
2023-02-11T03:51:32.763Z,100688.78
2023-02-11T03:56:43.445Z,100688.72
2023-02-11T04:01:46.874Z,100689.19
2023-02-11T04:07:16.567Z,100685.59
2023-02-11T04:12:20.191Z,100701.28
2023-02-11T04:17:23.551Z,100686.75
2023-02-11T04:22:28.405Z,100682.16
2023-02-11T04:27:32.596Z,100686.81
2023-02-11T04:32:36.223Z,100689.72
2023-02-11T04:37:41.031Z,100686.78
2023-02-11T04:42:44.418Z,100675.41
2023-02-11T04:47:49.085Z,100678.47
2023-02-11T04:52:54.307Z,100670.88
2023-02-11T04:58:00.779Z,100670.88
2023-02-11T05:03:04.165Z,100680.19
2023-02-11T05:08:11.100Z,100671.56
2023-02-11T05:13:14.812Z,100669.38
2023-02-11T05:18:18.459Z,100666.34
2023-02-11T05:23:25.963Z,100665.97
2023-02-11T05:28:30.166Z,100678.88
2023-02-11T05:33:33.653Z,100678.88
2023-02-11T05:38:39.389Z,100672.44
2023-02-11T05:43:42.796Z,100668.84
2023-02-11T05:48:48.354Z,100671.63
2023-02-11T05:53:54.452Z,100663.78
2023-02-11T05:59:00.664Z,100677.50
2023-02-11T06:04:04.442Z,100685.50
2023-02-11T06:09:10.432Z,100674.06
2023-02-11T06:14:14.465Z,100677.38
2023-02-11T06:19:18.091Z,100690.28
2023-02-11T06:24:47.856Z,100684.41
2023-02-11T06:29:46.761Z,100689.66
2023-02-11T06:34:53.112Z,100691.31
2023-02-11T06:39:57.927Z,100694.47
2023-02-11T06:45:01.663Z,100686.06
2023-02-11T06:50:09.047Z,100685.38
2023-02-11T06:55:15.315Z,100677.03
2023-02-11T07:00:19.570Z,100680.63
2023-02-11T07:05:22.922Z,100671.16
2023-02-11T07:10:27.664Z,100681.88
2023-02-11T07:15:31.519Z,100677.69
2023-02-11T07:20:35.140Z,100676.69
2023-02-11T07:25:40.297Z,100667.78
2023-02-11T07:30:43.827Z,100658.69
2023-02-11T07:35:47.466Z,100673.59
2023-02-11T07:40:52.225Z,100663.25
2023-02-11T07:45:57.334Z,100652.22
2023-02-11T07:51:07.558Z,100650.53
2023-02-11T07:56:14.078Z,100657.13
2023-02-11T08:01:22.595Z,100645.09
2023-02-11T08:06:27.705Z,100642.44
2023-02-11T08:11:33.017Z,100631.44
2023-02-11T08:16:39.007Z,100626.88
2023-02-11T08:21:43.373Z,100612.81
2023-02-11T08:26:50.754Z,100611.50
2023-02-11T08:31:54.147Z,100606.75
2023-02-11T08:36:57.565Z,100602.22
2023-02-11T08:42:02.478Z,100604.75
2023-02-11T08:47:08.436Z,100603.13
2023-02-11T08:52:11.793Z,100599.19
2023-02-11T08:57:16.654Z,100595.69
2023-02-11T09:02:20.425Z,100590.63
2023-02-11T09:07:24.235Z,100586.06
2023-02-11T09:12:29.069Z,100585.78
2023-02-11T09:17:32.541Z,100583.56
2023-02-11T09:22:36.389Z,100570.06
2023-02-11T09:27:41.196Z,100556.47
2023-02-11T09:32:45.816Z,100548.25
2023-02-11T09:37:49.176Z,100547.28
2023-02-11T09:43:03.083Z,100543.34
2023-02-11T09:48:14.877Z,100535.28
2023-02-11T09:53:27.104Z,100528.34
2023-02-11T09:58:35.796Z,100518.28
2023-02-11T10:04:05.562Z,100514.63
2023-02-11T10:09:24.660Z,100498.03
2023-02-11T10:14:51.989Z,100499.13
2023-02-11T10:20:10.415Z,100496.50
2023-02-11T10:25:24.953Z,100492.22
2023-02-11T10:30:35.492Z,100475.56
2023-02-11T10:35:40.381Z,100455.66
2023-02-11T10:40:44.161Z,100444.75
2023-02-11T10:45:53.506Z,100436.56
2023-02-11T10:51:09.444Z,100436.03
2023-02-11T10:56:15.750Z,100427.09
2023-02-11T11:01:24.775Z,100422.00
2023-02-11T11:06:33.598Z,100413.25
2023-02-11T11:11:53.390Z,100404.00
2023-02-11T11:16:58.432Z,100394.66
2023-02-11T11:22:02.319Z,100398.81
2023-02-11T11:27:07.457Z,100383.88
2023-02-11T11:32:21.664Z,100367.78
2023-02-11T11:37:28.087Z,100361.97
2023-02-11T11:42:33.362Z,100350.50
2023-02-11T11:47:46.403Z,100347.47
2023-02-11T11:52:57.977Z,100337.75
2023-02-11T11:58:01.540Z,100330.06
2023-02-11T12:03:37.950Z,100343.31
2023-02-11T12:08:54.336Z,100327.25
2023-02-11T12:14:11.683Z,100314.63
2023-02-11T12:19:39.783Z,100305.88
2023-02-11T12:24:57.942Z,100302.34
2023-02-11T12:30:10.510Z,100300.63
2023-02-11T12:35:39.313Z,100299.47
2023-02-11T12:40:48.899Z,100293.88
2023-02-11T12:46:07.101Z,100285.97
2023-02-11T12:51:23.589Z,100286.31
2023-02-11T12:56:38.078Z,100267.44
2023-02-11T13:01:45.186Z,100265.13
2023-02-11T13:06:53.444Z,100268.00
2023-02-11T13:12:24.412Z,100248.97
2023-02-11T13:17:34.332Z,100252.38
2023-02-11T13:22:43.896Z,100261.94
2023-02-11T13:27:58.987Z,100252.81
2023-02-11T13:33:06.702Z,100249.13
2023-02-11T13:38:25.386Z,100252.34
2023-02-11T13:43:32.044Z,100236.78
2023-02-11T13:48:38.354Z,100238.72
2023-02-11T13:53:49.274Z,100228.41
2023-02-11T13:58:54.197Z,100215.47
2023-02-11T14:04:38.145Z,100214.88
2023-02-11T14:09:42.007Z,100204.97
2023-02-11T14:15:19.036Z,100204.22
2023-02-11T14:20:45.402Z,100192.94
2023-02-11T14:25:59.833Z,100184.41
2023-02-11T14:31:11.283Z,100184.59
2023-02-11T14:36:32.664Z,100182.25
2023-02-11T14:41:41.501Z,100166.41
2023-02-11T14:46:52.542Z,100169.59
2023-02-11T14:51:59.559Z,100166.81
2023-02-11T14:57:13.936Z,100170.94
2023-02-11T15:02:26.397Z,100161.28
2023-02-11T15:07:30.485Z,100169.06
2023-02-11T15:12:33.970Z,100171.69
2023-02-11T15:17:43.322Z,100170.41
2023-02-11T15:22:47.531Z,100167.38
2023-02-11T15:27:53.153Z,100154.69
2023-02-11T15:33:00.328Z,100161.66
2023-02-11T15:38:05.996Z,100155.47
2023-02-11T15:43:11.722Z,100148.91
2023-02-11T15:48:20.373Z,100151.50
2023-02-11T15:53:27.212Z,100152.34
2023-02-11T15:58:37.970Z,100154.69
2023-02-11T16:03:44.384Z,100155.78
2023-02-11T16:09:02.585Z,100154.94
2023-02-11T16:14:24.624Z,100138.78
2023-02-11T16:19:31.809Z,100145.63
2023-02-11T16:24:36.896Z,100142.13
2023-02-11T16:29:40.666Z,100142.75
2023-02-11T16:34:45.619Z,100140.59
2023-02-11T16:39:49.322Z,100139.00
2023-02-11T16:44:52.795Z,100152.47
2023-02-11T16:49:58.269Z,100159.94
2023-02-11T16:55:02.172Z,100159.44
2023-02-11T17:00:07.801Z,100142.69
2023-02-11T17:05:20.046Z,100136.03
2023-02-11T17:10:27.109Z,100126.97
2023-02-11T17:15:30.471Z,100121.94
2023-02-11T17:20:35.313Z,100111.34
2023-02-11T17:25:39.130Z,100116.13
2023-02-11T17:30:44.194Z,100116.69
2023-02-11T17:35:49.213Z,100111.78
2023-02-11T17:40:59.945Z,100111.88
2023-02-11T17:46:07.782Z,100112.03
2023-02-11T17:51:24.206Z,100106.06
2023-02-11T17:56:28.128Z,100106.94
2023-02-11T18:01:33.526Z,100098.25
2023-02-11T18:06:38.572Z,100107.81
2023-02-11T18:11:42.551Z,100115.50
2023-02-11T18:16:47.592Z,100093.09
2023-02-11T18:21:53.064Z,100086.09
2023-02-11T18:26:56.534Z,100074.03
2023-02-11T18:32:02.583Z,100066.41
2023-02-11T18:37:07.475Z,100053.53
2023-02-11T18:42:16.871Z,100054.19
2023-02-11T18:47:23.030Z,100053.63
2023-02-11T18:52:31.442Z,100047.81
2023-02-11T18:57:35.242Z,100041.56
2023-02-11T19:02:39.045Z,100028.31
2023-02-11T19:07:43.960Z,100037.69
2023-02-11T19:12:47.399Z,100030.44
2023-02-11T19:17:50.953Z,100024.94
2023-02-11T19:22:55.755Z,100011.38
2023-02-11T19:27:59.184Z,100002.75
2023-02-11T19:33:02.597Z,100014.03
2023-02-11T19:38:08.622Z,100001.84
2023-02-11T19:43:12.555Z,99989.13
2023-02-11T19:48:15.999Z,99977.16
2023-02-11T19:53:21.191Z,99979.63
2023-02-11T19:58:24.710Z,99971.97
2023-02-11T20:03:28.469Z,99968.97
2023-02-11T20:08:33.668Z,99965.78
2023-02-11T20:13:37.866Z,99964.28
2023-02-11T20:18:41.972Z,99953.34
2023-02-11T20:23:47.441Z,99944.25
2023-02-11T20:28:52.443Z,99934.03
2023-02-11T20:33:56.522Z,99928.50
2023-02-11T20:39:01.968Z,99920.09
2023-02-11T20:44:08.357Z,99917.19
2023-02-11T20:49:13.013Z,99909.59
2023-02-11T20:54:19.881Z,99903.06
2023-02-11T20:59:23.420Z,99888.16
2023-02-11T21:04:29.601Z,99889.47
2023-02-11T21:09:34.853Z,99876.13
2023-02-11T21:14:38.273Z,99868.31
2023-02-11T21:19:43.417Z,99858.22
2023-02-11T21:24:48.204Z,99856.56
2023-02-11T21:29:54.516Z,99844.78
2023-02-11T21:35:00.614Z,99845.38
2023-02-11T21:40:10.347Z,99848.16
2023-02-11T21:45:14.186Z,99847.19
2023-02-11T21:50:19.282Z,99855.03
2023-02-11T21:55:24.432Z,99841.94
2023-02-11T22:00:28.236Z,99835.06
2023-02-11T22:05:31.942Z,99825.00
2023-02-11T22:10:36.724Z,99819.38
2023-02-11T22:15:40.192Z,99814.50
2023-02-11T22:20:43.592Z,99815.56
2023-02-11T22:25:48.401Z,99808.03
2023-02-11T22:30:55.494Z,99810.91
2023-02-11T22:36:03.128Z,99819.25
2023-02-11T22:41:10.754Z,99823.28
2023-02-11T22:46:16.554Z,99821.13
2023-02-11T22:51:22.367Z,99821.13
2023-02-11T22:56:28.704Z,99810.91
2023-02-11T23:01:32.944Z,99821.91
2023-02-11T23:06:36.644Z,99813.41
2023-02-11T23:11:41.992Z,99813.53
2023-02-11T23:16:45.446Z,99808.53
2023-02-11T23:21:52.706Z,99797.47
2023-02-11T23:26:57.472Z,99796.28
2023-02-11T23:32:00.877Z,99808.47
2023-02-11T23:37:04.291Z,99803.53
2023-02-11T23:42:09.227Z,99803.38
2023-02-11T23:47:12.927Z,99801.78
2023-02-11T23:52:16.584Z,99803.22
2023-02-11T23:57:22.017Z,99791.66
